Terminal Aerodrome Forecast
Issued by NWS Mt. Holly, NJ

Home | Current Version | Previous Version | Text Only | Print | Product List | Glossary On
Versions: 1 2 3 4 5 6 7 8 9 10 11 12 13 14 15 16 17 18 19 20 21 22 23 24 25 26 27 28
132
FTUS41 KPHI 292340
TAFPHL
TAF
KPHL 292340Z 3000/3106 17006KT P6SM SKC
      TEMPO 3009/3011 6SM BR
     FM301200 17005KT P6SM BKN200
     FM301600 16006KT P6SM VCSH BKN045
      TEMPO 3017/3021 3SM SHRA BR
     FM310000 13005KT 5SM SHRA OVC035=

USA.gov is the U.S. government's official web portal to all federal, state and local government web resources and services.